sensor_id;sensor_type;location;lat;lon;timestamp;P1;durP1;ratioP1;P2;durP2;ratioP2
15677;SDS011;7939;50.814;6.368;2023-01-24T00:01:38;15.30;;;10.20;;
15677;SDS011;7939;50.814;6.368;2023-01-24T00:04:05;15.47;;;10.17;;
15677;SDS011;7939;50.814;6.368;2023-01-24T00:06:32;14.83;;;9.80;;
15677;SDS011;7939;50.814;6.368;2023-01-24T00:08:58;16.10;;;11.07;;
15677;SDS011;7939;50.814;6.368;2023-01-24T00:11:26;19.53;;;11.17;;
15677;SDS011;7939;50.814;6.368;2023-01-24T00:13:53;16.20;;;10.17;;
15677;SDS011;7939;50.814;6.368;2023-01-24T00:16:20;12.13;;;9.03;;
15677;SDS011;7939;50.814;6.368;2023-01-24T00:18:47;16.27;;;10.30;;
15677;SDS011;7939;50.814;6.368;2023-01-24T00:21:15;16.73;;;10.52;;
15677;SDS011;7939;50.814;6.368;2023-01-24T00:23:44;15.60;;;10.13;;
15677;SDS011;7939;50.814;6.368;2023-01-24T00:26:12;15.90;;;10.03;;
15677;SDS011;7939;50.814;6.368;2023-01-24T00:28:41;15.03;;;10.43;;
15677;SDS011;7939;50.814;6.368;2023-01-24T00:31:08;13.50;;;9.87;;
15677;SDS011;7939;50.814;6.368;2023-01-24T00:33:35;17.53;;;10.77;;
15677;SDS011;7939;50.814;6.368;2023-01-24T00:36:02;15.70;;;9.53;;
15677;SDS011;7939;50.814;6.368;2023-01-24T00:38:29;16.43;;;10.83;;
15677;SDS011;7939;50.814;6.368;2023-01-24T00:40:56;14.07;;;9.90;;
15677;SDS011;7939;50.814;6.368;2023-01-24T00:43:23;16.00;;;10.90;;
15677;SDS011;7939;50.814;6.368;2023-01-24T00:45:52;15.00;;;9.83;;
15677;SDS011;7939;50.814;6.368;2023-01-24T00:48:19;13.83;;;9.47;;
15677;SDS011;7939;50.814;6.368;2023-01-24T00:50:46;16.00;;;10.40;;
15677;SDS011;7939;50.814;6.368;2023-01-24T00:53:12;13.90;;;10.07;;
15677;SDS011;7939;50.814;6.368;2023-01-24T00:55:42;16.03;;;9.93;;
15677;SDS011;7939;50.814;6.368;2023-01-24T00:58:09;14.77;;;9.77;;
15677;SDS011;7939;50.814;6.368;2023-01-24T01:00:36;16.87;;;10.80;;
15677;SDS011;7939;50.814;6.368;2023-01-24T01:03:05;15.20;;;9.40;;
15677;SDS011;7939;50.814;6.368;2023-01-24T01:05:32;12.83;;;9.53;;
15677;SDS011;7939;50.814;6.368;2023-01-24T01:07:59;15.77;;;9.53;;
15677;SDS011;7939;50.814;6.368;2023-01-24T01:10:26;14.13;;;9.20;;
15677;SDS011;7939;50.814;6.368;2023-01-24T01:12:52;15.53;;;10.23;;
15677;SDS011;7939;50.814;6.368;2023-01-24T01:15:19;13.50;;;9.73;;
15677;SDS011;7939;50.814;6.368;2023-01-24T01:17:45;14.63;;;10.10;;
15677;SDS011;7939;50.814;6.368;2023-01-24T01:20:13;14.93;;;9.63;;
15677;SDS011;7939;50.814;6.368;2023-01-24T01:22:40;13.50;;;9.83;;
15677;SDS011;7939;50.814;6.368;2023-01-24T01:25:07;13.67;;;9.40;;
15677;SDS011;7939;50.814;6.368;2023-01-24T01:27:34;13.90;;;9.00;;
15677;SDS011;7939;50.814;6.368;2023-01-24T01:30:01;13.73;;;9.10;;
15677;SDS011;7939;50.814;6.368;2023-01-24T01:32:28;12.13;;;8.77;;
15677;SDS011;7939;50.814;6.368;2023-01-24T01:34:54;14.17;;;9.53;;
15677;SDS011;7939;50.814;6.368;2023-01-24T01:37:22;14.37;;;9.43;;
15677;SDS011;7939;50.814;6.368;2023-01-24T01:39:49;15.83;;;9.97;;
15677;SDS011;7939;50.814;6.368;2023-01-24T01:42:16;15.47;;;10.50;;
15677;SDS011;7939;50.814;6.368;2023-01-24T01:44:42;13.53;;;9.10;;
15677;SDS011;7939;50.814;6.368;2023-01-24T01:47:15;11.40;;;9.13;;
15677;SDS011;7939;50.814;6.368;2023-01-24T01:49:46;15.43;;;9.37;;
15677;SDS011;7939;50.814;6.368;2023-01-24T01:52:18;13.27;;;9.77;;
15677;SDS011;7939;50.814;6.368;2023-01-24T01:54:48;14.23;;;9.37;;
15677;SDS011;7939;50.814;6.368;2023-01-24T01:57:16;14.00;;;9.43;;
15677;SDS011;7939;50.814;6.368;2023-01-24T01:59:47;11.67;;;8.93;;
15677;SDS011;7939;50.814;6.368;2023-01-24T02:02:16;15.33;;;9.53;;
15677;SDS011;7939;50.814;6.368;2023-01-24T02:04:46;11.77;;;8.63;;
15677;SDS011;7939;50.814;6.368;2023-01-24T02:07:18;14.50;;;9.47;;
15677;SDS011;7939;50.814;6.368;2023-01-24T02:09:50;13.63;;;8.37;;
15677;SDS011;7939;50.814;6.368;2023-01-24T02:12:19;13.80;;;9.03;;
15677;SDS011;7939;50.814;6.368;2023-01-24T02:14:47;15.50;;;9.43;;
15677;SDS011;7939;50.814;6.368;2023-01-24T02:17:48;12.27;;;8.70;;
15677;SDS011;7939;50.814;6.368;2023-01-24T02:20:21;10.60;;;8.03;;
15677;SDS011;7939;50.814;6.368;2023-01-24T02:23:00;13.30;;;9.20;;
15677;SDS011;7939;50.814;6.368;2023-01-24T02:25:37;14.60;;;8.30;;
15677;SDS011;7939;50.814;6.368;2023-01-24T02:28:10;10.67;;;8.23;;
15677;SDS011;7939;50.814;6.368;2023-01-24T02:30:36;14.03;;;9.17;;
15677;SDS011;7939;50.814;6.368;2023-01-24T02:33:11;15.90;;;10.30;;
15677;SDS011;7939;50.814;6.368;2023-01-24T02:35:38;13.50;;;9.13;;
15677;SDS011;7939;50.814;6.368;2023-01-24T02:38:05;12.50;;;8.93;;
15677;SDS011;7939;50.814;6.368;2023-01-24T02:40:38;14.13;;;9.33;;
15677;SDS011;7939;50.814;6.368;2023-01-24T02:43:06;12.37;;;9.10;;
15677;SDS011;7939;50.814;6.368;2023-01-24T02:45:34;10.97;;;8.60;;
15677;SDS011;7939;50.814;6.368;2023-01-24T02:48:01;10.80;;;8.20;;
15677;SDS011;7939;50.814;6.368;2023-01-24T02:50:28;13.23;;;8.80;;
15677;SDS011;7939;50.814;6.368;2023-01-24T02:53:18;11.27;;;8.63;;
15677;SDS011;7939;50.814;6.368;2023-01-24T02:55:56;15.07;;;10.03;;
15677;SDS011;7939;50.814;6.368;2023-01-24T02:58:40;15.70;;;10.20;;
15677;SDS011;7939;50.814;6.368;2023-01-24T03:01:08;12.60;;;9.53;;
15677;SDS011;7939;50.814;6.368;2023-01-24T03:03:35;14.03;;;9.40;;
15677;SDS011;7939;50.814;6.368;2023-01-24T03:06:02;13.17;;;8.90;;
15677;SDS011;7939;50.814;6.368;2023-01-24T03:08:29;13.70;;;9.73;;
15677;SDS011;7939;50.814;6.368;2023-01-24T03:10:58;13.03;;;8.83;;
15677;SDS011;7939;50.814;6.368;2023-01-24T03:13:24;11.17;;;8.60;;
15677;SDS011;7939;50.814;6.368;2023-01-24T03:16:11;13.57;;;9.13;;
15677;SDS011;7939;50.814;6.368;2023-01-24T03:18:55;10.57;;;8.13;;
15677;SDS011;7939;50.814;6.368;2023-01-24T03:21:39;12.57;;;9.20;;
15677;SDS011;7939;50.814;6.368;2023-01-24T03:24:24;12.43;;;9.80;;
15677;SDS011;7939;50.814;6.368;2023-01-24T03:27:08;12.77;;;9.20;;
15677;SDS011;7939;50.814;6.368;2023-01-24T03:29:53;9.75;;;7.85;;
15677;SDS011;7939;50.814;6.368;2023-01-24T03:32:38;12.35;;;9.35;;
15677;SDS011;7939;50.814;6.368;2023-01-24T03:35:23;10.40;;;8.45;;
15677;SDS011;7939;50.814;6.368;2023-01-24T03:37:49;11.43;;;8.50;;
15677;SDS011;7939;50.814;6.368;2023-01-24T03:40:34;10.70;;;8.30;;
15677;SDS011;7939;50.814;6.368;2023-01-24T03:43:01;10.07;;;8.00;;
15677;SDS011;7939;50.814;6.368;2023-01-24T03:45:29;13.00;;;8.60;;
15677;SDS011;7939;50.814;6.368;2023-01-24T03:47:59;14.23;;;10.03;;
15677;SDS011;7939;50.814;6.368;2023-01-24T03:50:28;13.20;;;10.00;;
15677;SDS011;7939;50.814;6.368;2023-01-24T03:53:15;11.57;;;8.67;;
15677;SDS011;7939;50.814;6.368;2023-01-24T03:55:42;14.00;;;9.70;;
15677;SDS011;7939;50.814;6.368;2023-01-24T03:58:09;13.27;;;9.73;;
15677;SDS011;7939;50.814;6.368;2023-01-24T04:00:37;13.07;;;9.70;;
15677;SDS011;7939;50.814;6.368;2023-01-24T04:03:05;14.67;;;9.93;;
15677;SDS011;7939;50.814;6.368;2023-01-24T04:05:32;15.63;;;10.07;;
15677;SDS011;7939;50.814;6.368;2023-01-24T04:07:59;12.87;;;8.73;;
15677;SDS011;7939;50.814;6.368;2023-01-24T04:10:26;12.40;;;8.83;;
15677;SDS011;7939;50.814;6.368;2023-01-24T04:12:53;15.17;;;9.57;;
15677;SDS011;7939;50.814;6.368;2023-01-24T04:15:21;13.93;;;9.53;;
15677;SDS011;7939;50.814;6.368;2023-01-24T04:17:49;13.53;;;9.80;;
15677;SDS011;7939;50.814;6.368;2023-01-24T04:20:17;10.80;;;9.00;;
15677;SDS011;7939;50.814;6.368;2023-01-24T04:22:44;13.47;;;9.77;;
15677;SDS011;7939;50.814;6.368;2023-01-24T04:25:10;13.87;;;10.20;;
15677;SDS011;7939;50.814;6.368;2023-01-24T04:27:37;15.07;;;10.87;;
15677;SDS011;7939;50.814;6.368;2023-01-24T04:30:04;15.70;;;10.90;;
15677;SDS011;7939;50.814;6.368;2023-01-24T04:32:32;13.47;;;10.03;;
15677;SDS011;7939;50.814;6.368;2023-01-24T04:34:58;12.40;;;9.23;;
15677;SDS011;7939;50.814;6.368;2023-01-24T04:37:27;11.87;;;8.93;;
15677;SDS011;7939;50.814;6.368;2023-01-24T04:39:53;12.27;;;9.00;;
15677;SDS011;7939;50.814;6.368;2023-01-24T04:42:20;12.87;;;9.20;;
15677;SDS011;7939;50.814;6.368;2023-01-24T04:44:46;13.02;;;10.02;;
15677;SDS011;7939;50.814;6.368;2023-01-24T04:47:13;15.43;;;10.80;;
15677;SDS011;7939;50.814;6.368;2023-01-24T04:49:40;14.20;;;11.17;;
15677;SDS011;7939;50.814;6.368;2023-01-24T04:52:08;15.37;;;11.37;;
15677;SDS011;7939;50.814;6.368;2023-01-24T04:54:36;13.80;;;10.87;;
15677;SDS011;7939;50.814;6.368;2023-01-24T04:57:03;12.80;;;9.67;;
15677;SDS011;7939;50.814;6.368;2023-01-24T04:59:30;13.73;;;9.63;;
15677;SDS011;7939;50.814;6.368;2023-01-24T05:01:56;14.95;;;10.48;;
15677;SDS011;7939;50.814;6.368;2023-01-24T05:04:23;12.63;;;10.23;;
15677;SDS011;7939;50.814;6.368;2023-01-24T05:06:49;15.63;;;10.27;;
15677;SDS011;7939;50.814;6.368;2023-01-24T05:09:16;16.27;;;11.27;;
15677;SDS011;7939;50.814;6.368;2023-01-24T05:11:44;16.17;;;11.03;;
15677;SDS011;7939;50.814;6.368;2023-01-24T05:14:11;14.02;;;10.27;;
15677;SDS011;7939;50.814;6.368;2023-01-24T05:16:37;11.77;;;9.70;;
15677;SDS011;7939;50.814;6.368;2023-01-24T05:19:04;15.83;;;10.67;;
15677;SDS011;7939;50.814;6.368;2023-01-24T05:21:31;15.20;;;9.83;;
15677;SDS011;7939;50.814;6.368;2023-01-24T05:23:58;16.00;;;10.47;;
15677;SDS011;7939;50.814;6.368;2023-01-24T05:26:25;15.83;;;10.70;;
15677;SDS011;7939;50.814;6.368;2023-01-24T05:28:54;13.43;;;9.98;;
15677;SDS011;7939;50.814;6.368;2023-01-24T05:31:21;13.97;;;10.27;;
15677;SDS011;7939;50.814;6.368;2023-01-24T05:33:48;15.13;;;11.57;;
15677;SDS011;7939;50.814;6.368;2023-01-24T05:36:15;15.37;;;10.80;;
15677;SDS011;7939;50.814;6.368;2023-01-24T05:38:43;14.32;;;10.95;;
15677;SDS011;7939;50.814;6.368;2023-01-24T05:41:10;15.03;;;11.30;;
15677;SDS011;7939;50.814;6.368;2023-01-24T05:43:41;17.50;;;11.63;;
15677;SDS011;7939;50.814;6.368;2023-01-24T05:46:10;16.40;;;12.17;;
15677;SDS011;7939;50.814;6.368;2023-01-24T05:48:38;14.23;;;10.17;;
15677;SDS011;7939;50.814;6.368;2023-01-24T05:51:06;15.37;;;10.97;;
15677;SDS011;7939;50.814;6.368;2023-01-24T05:53:35;14.90;;;10.50;;
15677;SDS011;7939;50.814;6.368;2023-01-24T05:56:03;15.70;;;10.70;;
15677;SDS011;7939;50.814;6.368;2023-01-24T05:58:32;15.27;;;11.18;;
15677;SDS011;7939;50.814;6.368;2023-01-24T06:01:00;17.07;;;10.50;;
15677;SDS011;7939;50.814;6.368;2023-01-24T06:03:28;14.80;;;11.07;;
15677;SDS011;7939;50.814;6.368;2023-01-24T06:05:54;16.83;;;10.83;;
15677;SDS011;7939;50.814;6.368;2023-01-24T06:08:21;16.10;;;11.37;;
15677;SDS011;7939;50.814;6.368;2023-01-24T06:10:48;17.47;;;11.93;;
15677;SDS011;7939;50.814;6.368;2023-01-24T06:13:15;16.92;;;11.13;;
15677;SDS011;7939;50.814;6.368;2023-01-24T06:15:42;17.08;;;11.90;;
15677;SDS011;7939;50.814;6.368;2023-01-24T06:18:09;15.10;;;11.27;;
15677;SDS011;7939;50.814;6.368;2023-01-24T06:20:41;17.30;;;12.43;;
15677;SDS011;7939;50.814;6.368;2023-01-24T06:23:10;19.07;;;12.37;;
15677;SDS011;7939;50.814;6.368;2023-01-24T06:25:45;16.63;;;12.00;;
15677;SDS011;7939;50.814;6.368;2023-01-24T06:28:12;15.18;;;11.27;;
15677;SDS011;7939;50.814;6.368;2023-01-24T06:30:39;16.57;;;11.03;;
15677;SDS011;7939;50.814;6.368;2023-01-24T06:33:12;16.90;;;11.30;;
15677;SDS011;7939;50.814;6.368;2023-01-24T06:35:52;15.53;;;10.87;;
15677;SDS011;7939;50.814;6.368;2023-01-24T06:38:33;17.37;;;12.20;;
15677;SDS011;7939;50.814;6.368;2023-01-24T06:41:01;15.60;;;11.43;;
15677;SDS011;7939;50.814;6.368;2023-01-24T06:43:29;17.60;;;11.87;;
15677;SDS011;7939;50.814;6.368;2023-01-24T06:45:56;14.97;;;9.80;;
15677;SDS011;7939;50.814;6.368;2023-01-24T06:48:22;15.32;;;10.98;;
15677;SDS011;7939;50.814;6.368;2023-01-24T06:50:50;17.83;;;11.07;;
15677;SDS011;7939;50.814;6.368;2023-01-24T06:53:17;16.10;;;11.30;;
15677;SDS011;7939;50.814;6.368;2023-01-24T06:55:44;14.10;;;10.50;;
15677;SDS011;7939;50.814;6.368;2023-01-24T06:58:11;15.93;;;10.00;;
15677;SDS011;7939;50.814;6.368;2023-01-24T07:00:38;16.45;;;11.18;;
15677;SDS011;7939;50.814;6.368;2023-01-24T07:03:05;15.20;;;11.07;;
15677;SDS011;7939;50.814;6.368;2023-01-24T07:05:33;15.77;;;10.67;;
15677;SDS011;7939;50.814;6.368;2023-01-24T07:08:02;14.33;;;11.30;;
15677;SDS011;7939;50.814;6.368;2023-01-24T07:10:29;14.63;;;10.77;;
15677;SDS011;7939;50.814;6.368;2023-01-24T07:12:56;14.10;;;11.03;;
15677;SDS011;7939;50.814;6.368;2023-01-24T07:15:23;13.37;;;10.17;;
15677;SDS011;7939;50.814;6.368;2023-01-24T07:17:50;13.93;;;9.40;;
15677;SDS011;7939;50.814;6.368;2023-01-24T07:20:18;14.97;;;10.57;;
15677;SDS011;7939;50.814;6.368;2023-01-24T07:22:45;14.63;;;10.98;;
15677;SDS011;7939;50.814;6.368;2023-01-24T07:25:14;16.83;;;11.88;;
15677;SDS011;7939;50.814;6.368;2023-01-24T07:27:44;17.48;;;12.05;;
15677;SDS011;7939;50.814;6.368;2023-01-24T07:30:11;16.77;;;12.07;;
15677;SDS011;7939;50.814;6.368;2023-01-24T07:32:38;19.40;;;12.23;;
15677;SDS011;7939;50.814;6.368;2023-01-24T07:35:06;17.53;;;11.63;;
15677;SDS011;7939;50.814;6.368;2023-01-24T07:37:33;15.20;;;11.20;;
15677;SDS011;7939;50.814;6.368;2023-01-24T07:40:00;16.40;;;11.37;;
15677;SDS011;7939;50.814;6.368;2023-01-24T07:42:27;16.07;;;12.00;;
15677;SDS011;7939;50.814;6.368;2023-01-24T07:44:54;14.23;;;11.47;;
15677;SDS011;7939;50.814;6.368;2023-01-24T07:47:21;14.13;;;10.63;;
15677;SDS011;7939;50.814;6.368;2023-01-24T07:49:48;15.20;;;10.33;;
15677;SDS011;7939;50.814;6.368;2023-01-24T07:52:15;15.50;;;10.43;;
15677;SDS011;7939;50.814;6.368;2023-01-24T07:54:41;14.13;;;9.93;;
15677;SDS011;7939;50.814;6.368;2023-01-24T07:57:08;13.80;;;10.10;;
15677;SDS011;7939;50.814;6.368;2023-01-24T07:59:36;13.00;;;10.20;;
15677;SDS011;7939;50.814;6.368;2023-01-24T08:02:03;14.27;;;9.90;;
15677;SDS011;7939;50.814;6.368;2023-01-24T08:04:29;18.13;;;11.27;;
15677;SDS011;7939;50.814;6.368;2023-01-24T08:06:56;17.83;;;12.00;;
15677;SDS011;7939;50.814;6.368;2023-01-24T08:09:40;16.07;;;11.77;;
15677;SDS011;7939;50.814;6.368;2023-01-24T08:12:07;15.53;;;11.33;;
15677;SDS011;7939;50.814;6.368;2023-01-24T08:14:33;14.37;;;10.37;;
15677;SDS011;7939;50.814;6.368;2023-01-24T08:17:01;14.97;;;10.73;;
15677;SDS011;7939;50.814;6.368;2023-01-24T08:19:28;17.30;;;11.53;;
15677;SDS011;7939;50.814;6.368;2023-01-24T08:21:55;15.87;;;11.33;;
15677;SDS011;7939;50.814;6.368;2023-01-24T08:24:21;15.50;;;10.40;;
15677;SDS011;7939;50.814;6.368;2023-01-24T08:26:48;12.77;;;10.33;;
15677;SDS011;7939;50.814;6.368;2023-01-24T08:29:16;13.73;;;11.13;;
15677;SDS011;7939;50.814;6.368;2023-01-24T08:31:42;14.67;;;10.43;;
15677;SDS011;7939;50.814;6.368;2023-01-24T08:34:10;13.90;;;10.40;;
15677;SDS011;7939;50.814;6.368;2023-01-24T08:36:37;11.77;;;9.80;;
15677;SDS011;7939;50.814;6.368;2023-01-24T08:39:03;13.97;;;10.90;;
15677;SDS011;7939;50.814;6.368;2023-01-24T08:41:30;13.03;;;9.47;;
15677;SDS011;7939;50.814;6.368;2023-01-24T08:43:56;15.77;;;11.37;;
15677;SDS011;7939;50.814;6.368;2023-01-24T08:46:23;14.10;;;10.60;;
15677;SDS011;7939;50.814;6.368;2023-01-24T08:48:50;15.52;;;10.60;;
15677;SDS011;7939;50.814;6.368;2023-01-24T08:51:18;14.40;;;10.70;;
15677;SDS011;7939;50.814;6.368;2023-01-24T08:53:44;12.60;;;9.73;;
15677;SDS011;7939;50.814;6.368;2023-01-24T08:56:11;11.87;;;9.70;;
15677;SDS011;7939;50.814;6.368;2023-01-24T08:58:37;13.73;;;10.70;;
15677;SDS011;7939;50.814;6.368;2023-01-24T09:01:05;15.15;;;12.13;;
15677;SDS011;7939;50.814;6.368;2023-01-24T09:03:32;15.03;;;12.50;;
15677;SDS011;7939;50.814;6.368;2023-01-24T09:05:59;14.63;;;11.20;;
15677;SDS011;7939;50.814;6.368;2023-01-24T09:08:27;12.05;;;9.55;;
15677;SDS011;7939;50.814;6.368;2023-01-24T09:10:53;11.75;;;9.32;;
15677;SDS011;7939;50.814;6.368;2023-01-24T09:13:24;14.15;;;10.55;;
15677;SDS011;7939;50.814;6.368;2023-01-24T09:15:50;13.93;;;11.38;;
15677;SDS011;7939;50.814;6.368;2023-01-24T09:18:17;13.00;;;9.35;;
15677;SDS011;7939;50.814;6.368;2023-01-24T09:20:43;12.95;;;10.18;;
15677;SDS011;7939;50.814;6.368;2023-01-24T09:23:11;15.90;;;11.23;;
15677;SDS011;7939;50.814;6.368;2023-01-24T09:25:41;13.97;;;10.43;;
15677;SDS011;7939;50.814;6.368;2023-01-24T09:28:14;14.98;;;10.10;;
15677;SDS011;7939;50.814;6.368;2023-01-24T09:30:41;14.38;;;10.57;;
15677;SDS011;7939;50.814;6.368;2023-01-24T09:33:07;14.05;;;10.32;;
15677;SDS011;7939;50.814;6.368;2023-01-24T09:35:34;16.30;;;10.23;;
15677;SDS011;7939;50.814;6.368;2023-01-24T09:38:00;12.63;;;9.30;;
15677;SDS011;7939;50.814;6.368;2023-01-24T09:40:29;12.75;;;9.82;;
15677;SDS011;7939;50.814;6.368;2023-01-24T09:43:11;12.55;;;10.02;;
15677;SDS011;7939;50.814;6.368;2023-01-24T09:45:49;13.55;;;9.30;;
15677;SDS011;7939;50.814;6.368;2023-01-24T09:48:22;14.57;;;10.23;;
15677;SDS011;7939;50.814;6.368;2023-01-24T09:50:51;12.25;;;10.52;;
15677;SDS011;7939;50.814;6.368;2023-01-24T09:53:23;13.33;;;8.90;;
15677;SDS011;7939;50.814;6.368;2023-01-24T09:55:53;14.70;;;10.20;;
15677;SDS011;7939;50.814;6.368;2023-01-24T09:58:25;15.13;;;10.52;;
15677;SDS011;7939;50.814;6.368;2023-01-24T10:00:58;14.50;;;10.80;;
15677;SDS011;7939;50.814;6.368;2023-01-24T10:03:26;15.13;;;10.57;;
15677;SDS011;7939;50.814;6.368;2023-01-24T10:05:54;14.15;;;10.30;;
15677;SDS011;7939;50.814;6.368;2023-01-24T10:08:24;13.23;;;10.75;;
15677;SDS011;7939;50.814;6.368;2023-01-24T10:11:00;16.20;;;12.17;;
15677;SDS011;7939;50.814;6.368;2023-01-24T10:13:46;15.87;;;12.40;;
15677;SDS011;7939;50.814;6.368;2023-01-24T10:19:48;15.53;;;11.00;;
15677;SDS011;7939;50.814;6.368;2023-01-24T10:22:28;15.70;;;10.63;;
15677;SDS011;7939;50.814;6.368;2023-01-24T10:25:11;14.53;;;10.13;;
15677;SDS011;7939;50.814;6.368;2023-01-24T10:27:41;16.53;;;10.50;;
15677;SDS011;7939;50.814;6.368;2023-01-24T10:30:15;14.93;;;11.00;;
15677;SDS011;7939;50.814;6.368;2023-01-24T10:32:46;13.40;;;10.50;;
15677;SDS011;7939;50.814;6.368;2023-01-24T10:35:17;13.55;;;10.10;;
15677;SDS011;7939;50.814;6.368;2023-01-24T10:37:49;15.00;;;10.40;;
15677;SDS011;7939;50.814;6.368;2023-01-24T10:40:21;17.03;;;10.30;;
15677;SDS011;7939;50.814;6.368;2023-01-24T10:42:49;15.37;;;11.13;;
15677;SDS011;7939;50.814;6.368;2023-01-24T10:48:11;14.83;;;10.67;;
15677;SDS011;7939;50.814;6.368;2023-01-24T10:50:45;17.80;;;12.47;;
15677;SDS011;7939;50.814;6.368;2023-01-24T10:53:12;14.40;;;10.40;;
15677;SDS011;7939;50.814;6.368;2023-01-24T10:55:41;14.43;;;10.30;;
15677;SDS011;7939;50.814;6.368;2023-01-24T10:58:21;16.60;;;11.87;;
15677;SDS011;7939;50.814;6.368;2023-01-24T11:00:56;15.00;;;10.07;;
15677;SDS011;7939;50.814;6.368;2023-01-24T11:03:25;14.60;;;10.95;;
15677;SDS011;7939;50.814;6.368;2023-01-24T11:05:54;12.83;;;9.57;;
15677;SDS011;7939;50.814;6.368;2023-01-24T11:08:23;13.65;;;10.52;;
15677;SDS011;7939;50.814;6.368;2023-01-24T11:10:51;12.07;;;9.43;;
15677;SDS011;7939;50.814;6.368;2023-01-24T11:13:27;12.35;;;10.02;;
15677;SDS011;7939;50.814;6.368;2023-01-24T11:16:00;12.67;;;9.87;;
15677;SDS011;7939;50.814;6.368;2023-01-24T11:18:29;13.40;;;10.40;;
15677;SDS011;7939;50.814;6.368;2023-01-24T11:21:06;12.37;;;10.10;;
15677;SDS011;7939;50.814;6.368;2023-01-24T11:23:34;13.60;;;10.97;;
15677;SDS011;7939;50.814;6.368;2023-01-24T11:26:01;16.27;;;11.67;;
15677;SDS011;7939;50.814;6.368;2023-01-24T11:28:30;16.37;;;12.43;;
15677;SDS011;7939;50.814;6.368;2023-01-24T11:31:00;14.63;;;12.02;;
15677;SDS011;7939;50.814;6.368;2023-01-24T11:33:42;14.95;;;12.13;;
15677;SDS011;7939;50.814;6.368;2023-01-24T11:36:33;13.73;;;10.27;;
15677;SDS011;7939;50.814;6.368;2023-01-24T11:39:08;12.27;;;9.73;;
15677;SDS011;7939;50.814;6.368;2023-01-24T11:41:44;13.93;;;9.50;;
15677;SDS011;7939;50.814;6.368;2023-01-24T11:44:31;10.18;;;8.43;;
15677;SDS011;7939;50.814;6.368;2023-01-24T11:47:06;11.13;;;9.07;;
15677;SDS011;7939;50.814;6.368;2023-01-24T11:50:02;12.67;;;8.97;;
15677;SDS011;7939;50.814;6.368;2023-01-24T11:52:45;11.07;;;9.00;;
15677;SDS011;7939;50.814;6.368;2023-01-24T11:55:25;9.57;;;8.02;;
15677;SDS011;7939;50.814;6.368;2023-01-24T11:58:09;11.87;;;8.73;;
15677;SDS011;7939;50.814;6.368;2023-01-24T12:00:49;10.63;;;9.10;;
15677;SDS011;7939;50.814;6.368;2023-01-24T12:03:36;11.73;;;9.23;;
15677;SDS011;7939;50.814;6.368;2023-01-24T12:06:21;10.75;;;8.90;;
15677;SDS011;7939;50.814;6.368;2023-01-24T12:09:00;11.90;;;9.50;;
15677;SDS011;7939;50.814;6.368;2023-01-24T12:11:37;12.48;;;10.45;;
15677;SDS011;7939;50.814;6.368;2023-01-24T12:14:17;12.88;;;10.27;;
15677;SDS011;7939;50.814;6.368;2023-01-24T12:17:11;12.17;;;9.07;;
15677;SDS011;7939;50.814;6.368;2023-01-24T12:19:56;18.47;;;10.93;;
15677;SDS011;7939;50.814;6.368;2023-01-24T12:22:42;13.00;;;9.57;;
15677;SDS011;7939;50.814;6.368;2023-01-24T12:25:12;10.65;;;8.90;;
15677;SDS011;7939;50.814;6.368;2023-01-24T12:27:46;13.33;;;10.50;;
15677;SDS011;7939;50.814;6.368;2023-01-24T12:30:14;11.63;;;9.63;;
15677;SDS011;7939;50.814;6.368;2023-01-24T12:32:48;14.10;;;10.88;;
15677;SDS011;7939;50.814;6.368;2023-01-24T12:35:21;10.17;;;8.93;;
15677;SDS011;7939;50.814;6.368;2023-01-24T12:37:54;12.97;;;10.73;;
15677;SDS011;7939;50.814;6.368;2023-01-24T12:40:32;15.03;;;11.10;;
15677;SDS011;7939;50.814;6.368;2023-01-24T12:43:08;12.20;;;9.23;;
15677;SDS011;7939;50.814;6.368;2023-01-24T12:45:44;16.20;;;13.17;;
15677;SDS011;7939;50.814;6.368;2023-01-24T12:48:16;15.57;;;10.68;;
15677;SDS011;7939;50.814;6.368;2023-01-24T12:50:51;15.37;;;12.60;;
15677;SDS011;7939;50.814;6.368;2023-01-24T12:53:25;16.98;;;12.38;;
15677;SDS011;7939;50.814;6.368;2023-01-24T12:55:59;16.07;;;12.70;;
15677;SDS011;7939;50.814;6.368;2023-01-24T12:58:29;13.43;;;10.30;;
15677;SDS011;7939;50.814;6.368;2023-01-24T13:01:04;14.80;;;11.13;;
15677;SDS011;7939;50.814;6.368;2023-01-24T13:03:58;16.83;;;11.77;;
15677;SDS011;7939;50.814;6.368;2023-01-24T13:06:39;17.77;;;12.00;;
15677;SDS011;7939;50.814;6.368;2023-01-24T13:09:13;16.57;;;12.40;;
15677;SDS011;7939;50.814;6.368;2023-01-24T13:11:47;13.93;;;11.10;;
15677;SDS011;7939;50.814;6.368;2023-01-24T13:14:19;15.73;;;11.30;;
15677;SDS011;7939;50.814;6.368;2023-01-24T13:16:52;13.80;;;10.57;;
15677;SDS011;7939;50.814;6.368;2023-01-24T13:19:38;13.13;;;9.97;;
15677;SDS011;7939;50.814;6.368;2023-01-24T13:22:32;11.93;;;9.37;;
15677;SDS011;7939;50.814;6.368;2023-01-24T13:25:25;14.35;;;9.88;;
15677;SDS011;7939;50.814;6.368;2023-01-24T13:28:08;13.53;;;10.83;;
15677;SDS011;7939;50.814;6.368;2023-01-24T13:30:46;13.13;;;10.97;;
15677;SDS011;7939;50.814;6.368;2023-01-24T13:33:20;11.90;;;9.93;;
15677;SDS011;7939;50.814;6.368;2023-01-24T13:35:53;12.50;;;9.90;;
15677;SDS011;7939;50.814;6.368;2023-01-24T13:38:22;12.90;;;9.90;;
15677;SDS011;7939;50.814;6.368;2023-01-24T13:40:58;12.93;;;9.63;;
15677;SDS011;7939;50.814;6.368;2023-01-24T13:49:37;13.70;;;9.90;;
15677;SDS011;7939;50.814;6.368;2023-01-24T13:55:03;14.65;;;11.45;;
15677;SDS011;7939;50.814;6.368;2023-01-24T13:57:32;11.67;;;9.40;;
15677;SDS011;7939;50.814;6.368;2023-01-24T14:02:59;11.17;;;9.40;;
15677;SDS011;7939;50.814;6.368;2023-01-24T14:11:21;12.80;;;10.10;;
15677;SDS011;7939;50.814;6.368;2023-01-24T14:14:25;13.13;;;10.25;;
15677;SDS011;7939;50.814;6.368;2023-01-24T14:19:52;14.07;;;12.32;;
15677;SDS011;7939;50.814;6.368;2023-01-24T14:22:21;13.27;;;10.70;;
15677;SDS011;7939;50.814;6.368;2023-01-24T14:24:56;14.43;;;11.50;;
15677;SDS011;7939;50.814;6.368;2023-01-24T14:27:32;13.55;;;11.15;;
15677;SDS011;7939;50.814;6.368;2023-01-24T14:30:09;15.55;;;10.75;;
15677;SDS011;7939;50.814;6.368;2023-01-24T14:32:55;14.15;;;12.02;;
15677;SDS011;7939;50.814;6.368;2023-01-24T14:35:27;13.10;;;10.15;;
15677;SDS011;7939;50.814;6.368;2023-01-24T14:38:09;14.38;;;9.85;;
15677;SDS011;7939;50.814;6.368;2023-01-24T14:40:38;14.57;;;11.27;;
15677;SDS011;7939;50.814;6.368;2023-01-24T14:43:06;13.63;;;10.38;;
15677;SDS011;7939;50.814;6.368;2023-01-24T14:45:37;12.98;;;10.27;;
15677;SDS011;7939;50.814;6.368;2023-01-24T14:48:06;13.35;;;10.80;;
15677;SDS011;7939;50.814;6.368;2023-01-24T14:50:36;12.98;;;9.98;;
15677;SDS011;7939;50.814;6.368;2023-01-24T14:53:21;13.07;;;10.00;;
15677;SDS011;7939;50.814;6.368;2023-01-24T14:55:49;12.75;;;9.68;;
15677;SDS011;7939;50.814;6.368;2023-01-24T14:58:21;13.35;;;9.43;;
15677;SDS011;7939;50.814;6.368;2023-01-24T15:00:51;11.35;;;8.88;;
15677;SDS011;7939;50.814;6.368;2023-01-24T15:03:20;10.23;;;8.45;;
15677;SDS011;7939;50.814;6.368;2023-01-24T15:05:53;12.15;;;9.35;;
15677;SDS011;7939;50.814;6.368;2023-01-24T15:08:30;13.23;;;9.38;;
15677;SDS011;7939;50.814;6.368;2023-01-24T15:11:00;11.15;;;9.43;;
15677;SDS011;7939;50.814;6.368;2023-01-24T15:13:31;13.50;;;10.77;;
15677;SDS011;7939;50.814;6.368;2023-01-24T15:16:01;11.32;;;8.82;;
15677;SDS011;7939;50.814;6.368;2023-01-24T15:18:40;12.57;;;9.75;;
15677;SDS011;7939;50.814;6.368;2023-01-24T15:21:20;13.43;;;10.13;;
15677;SDS011;7939;50.814;6.368;2023-01-24T15:23:53;11.80;;;9.13;;
15677;SDS011;7939;50.814;6.368;2023-01-24T15:26:30;10.98;;;9.55;;
15677;SDS011;7939;50.814;6.368;2023-01-24T15:32:01;10.13;;;8.30;;
15677;SDS011;7939;50.814;6.368;2023-01-24T15:34:28;14.10;;;10.27;;